createdAt,value
2016-07-30T00:00:09.985Z,71.14
2016-07-30T00:01:10.010Z,71.04
2016-07-30T00:02:10.047Z,70.94
2016-07-30T00:03:10.068Z,71.23
2016-07-30T00:04:10.090Z,71.04
2016-07-30T00:05:10.115Z,70.94
2016-07-30T00:06:10.142Z,71.14
2016-07-30T00:07:10.169Z,71.1
2016-07-30T00:08:10.195Z,71.2
2016-07-30T00:09:10.222Z,71.23
2016-07-30T00:10:10.254Z,71.04
2016-07-30T00:11:10.273Z,70.94
2016-07-30T00:12:10.300Z,71.23
2016-07-30T00:13:10.325Z,71.42
2016-07-30T00:14:10.353Z,71.58
2016-07-30T00:15:10.380Z,71.39
2016-07-30T00:16:10.404Z,71.62
2016-07-30T00:17:10.434Z,71.39
2016-07-30T00:18:10.458Z,71.62
2016-07-30T00:19:10.483Z,71.72
2016-07-30T00:20:10.521Z,71.33
2016-07-30T00:21:10.538Z,71.39
2016-07-30T00:22:10.566Z,71.39
2016-07-30T00:23:10.590Z,71.48
2016-07-30T00:24:10.616Z,71.48
2016-07-30T00:25:10.641Z,71.3
2016-07-30T00:26:10.669Z,71.52
2016-07-30T00:27:10.696Z,71.39
2016-07-30T00:28:10.725Z,71.48
2016-07-30T00:29:10.747Z,71.3
2016-07-30T00:30:10.774Z,71.68
2016-07-30T00:31:10.801Z,71.39
2016-07-30T00:32:10.828Z,71.2
2016-07-30T00:33:10.859Z,71.2
2016-07-30T00:34:10.885Z,71.3
2016-07-30T00:35:10.908Z,71.48
2016-07-30T00:36:10.938Z,71.3
2016-07-30T00:37:10.965Z,71.58
2016-07-30T00:38:10.985Z,71.48
2016-07-30T00:39:11.011Z,71.58
2016-07-30T00:40:11.034Z,71.1
2016-07-30T00:41:11.063Z,71.88
2016-07-30T00:42:11.090Z,71.3
2016-07-30T00:43:11.116Z,71.78
2016-07-30T00:44:11.141Z,71.3
2016-07-30T00:45:11.170Z,71.48
2016-07-30T00:46:11.194Z,71.3
2016-07-30T00:47:11.221Z,71.2
2016-07-30T00:48:11.244Z,71.39
2016-07-30T00:49:11.273Z,71.3
2016-07-30T00:50:11.298Z,71.2
2016-07-30T00:51:11.325Z,71.2
2016-07-30T00:52:11.351Z,71.88
2016-07-30T00:53:11.376Z,71.2
2016-07-30T00:54:11.404Z,71.3
2016-07-30T00:55:11.428Z,71.3
2016-07-30T00:56:11.454Z,71.3
2016-07-30T00:57:11.482Z,71.78
2016-07-30T00:58:11.508Z,71.39
2016-07-30T00:59:11.533Z,71.2
2016-07-30T01:00:11.561Z,71.48
2016-07-30T01:01:11.588Z,71.3
2016-07-30T01:02:11.611Z,71.78
2016-07-30T01:03:11.640Z,71.78
2016-07-30T01:04:11.666Z,71.97
2016-07-30T01:05:11.690Z,71.1
2016-07-30T01:06:11.717Z,71.68
2016-07-30T01:07:11.744Z,70.9
2016-07-30T01:08:11.769Z,71.78
2016-07-30T01:09:11.797Z,71.1
2016-07-30T01:10:11.822Z,71.97
2016-07-30T01:11:11.849Z,71.78
2016-07-30T01:12:11.875Z,71.68
2016-07-30T01:13:11.900Z,71.78
2016-07-30T01:14:11.927Z,71.78
2016-07-30T01:15:11.953Z,71.88
2016-07-30T01:16:11.981Z,71.97
2016-07-30T01:17:12.005Z,71.78
2016-07-30T01:18:12.031Z,71.97
2016-07-30T01:19:12.059Z,71.58
2016-07-30T01:20:12.083Z,71.88
2016-07-30T01:21:12.109Z,71.78
2016-07-30T01:22:12.139Z,71.78
2016-07-30T01:23:12.163Z,71.58
2016-07-30T01:24:12.187Z,71.78
2016-07-30T01:25:12.215Z,71.58
2016-07-30T01:26:12.240Z,71.68
2016-07-30T01:27:12.266Z,71.88
2016-07-30T01:28:12.293Z,71.68
2016-07-30T01:29:12.319Z,71.78
2016-07-30T01:30:12.345Z,71.78
2016-07-30T01:31:12.371Z,71.58
2016-07-30T01:32:12.397Z,71.78
2016-07-30T01:33:12.423Z,71.68
2016-07-30T01:34:12.451Z,72.06
2016-07-30T01:35:12.485Z,72.36
2016-07-30T01:36:12.503Z,72.36
2016-07-30T01:37:12.528Z,71.97
2016-07-30T01:38:12.553Z,71.88
2016-07-30T01:39:12.581Z,71.48
2016-07-30T01:40:12.617Z,72.55
2016-07-30T01:41:12.631Z,71.58
2016-07-30T01:42:12.657Z,72.36
2016-07-30T01:43:12.689Z,72.16
2016-07-30T01:44:12.712Z,72.55
2016-07-30T01:45:12.737Z,71.58
2016-07-30T01:46:12.762Z,72.36
2016-07-30T01:47:12.790Z,72.16
2016-07-30T01:48:12.814Z,72.16
2016-07-30T01:49:12.841Z,72.36
2016-07-30T01:50:12.868Z,72.16
2016-07-30T01:51:12.894Z,72.36
2016-07-30T01:52:12.920Z,72.36
2016-07-30T01:53:12.945Z,72.36
2016-07-30T01:54:12.972Z,72.16
2016-07-30T01:55:12.997Z,72.16
2016-07-30T01:56:13.025Z,72.16
2016-07-30T01:57:13.050Z,72.06
2016-07-30T01:58:13.076Z,72.36
2016-07-30T01:59:13.103Z,72.26
2016-07-30T02:00:13.126Z,72.26
2016-07-30T02:01:13.159Z,72.26
2016-07-30T02:02:13.179Z,72.06
2016-07-30T02:03:13.205Z,71.97
2016-07-30T02:04:13.232Z,72.16
2016-07-30T02:05:13.262Z,72.06
2016-07-30T02:06:13.485Z,72.06
2016-07-30T02:07:13.309Z,72.36
2016-07-30T02:08:13.335Z,72.16
2016-07-30T02:09:13.361Z,71.97
2016-07-30T02:10:13.394Z,71.97
2016-07-30T02:11:13.421Z,72.26
2016-07-30T02:12:13.440Z,71.97
2016-07-30T02:13:13.468Z,72.16
2016-07-30T02:14:13.491Z,72.06
2016-07-30T02:15:13.518Z,72.16
2016-07-30T02:16:13.545Z,72.45
2016-07-30T02:17:13.570Z,72.16
2016-07-30T02:18:13.597Z,72.8
2016-07-30T02:19:13.623Z,71.94
2016-07-30T02:20:13.648Z,73
2016-07-30T02:21:13.673Z,72.8
2016-07-30T02:22:13.699Z,72.13
2016-07-30T02:23:13.727Z,72.61
2016-07-30T02:24:13.752Z,73
2016-07-30T02:25:13.779Z,72.61
2016-07-30T02:26:13.804Z,72.52
2016-07-30T02:27:13.827Z,72.71
2016-07-30T02:28:13.857Z,72.36
2016-07-30T02:29:13.883Z,72.42
2016-07-30T02:30:13.906Z,72.8
2016-07-30T02:31:13.940Z,72.32
2016-07-30T02:32:13.965Z,72.36
2016-07-30T02:33:13.986Z,72.32
2016-07-30T02:34:14.012Z,72.61
2016-07-30T02:35:14.036Z,72.42
2016-07-30T02:36:14.065Z,72.22
2016-07-30T02:37:14.090Z,72.22
2016-07-30T02:38:14.120Z,72.8
2016-07-30T02:39:14.144Z,72.32
2016-07-30T02:40:14.167Z,72.52
2016-07-30T02:41:14.193Z,72.52
2016-07-30T02:42:14.218Z,72.8
2016-07-30T02:43:14.245Z,72.8
2016-07-30T02:44:14.968Z,72.8
2016-07-30T02:45:14.296Z,71.84
2016-07-30T02:46:14.323Z,72.13
2016-07-30T02:47:14.348Z,72.42
2016-07-30T02:48:14.373Z,72.52
2016-07-30T02:49:14.401Z,72.8
2016-07-30T02:50:14.430Z,72.52
2016-07-30T02:51:14.453Z,72.8
2016-07-30T02:52:14.478Z,72.61
2016-07-30T02:53:14.508Z,72.9
2016-07-30T02:54:14.530Z,72.42
2016-07-30T02:55:14.557Z,72.8
2016-07-30T02:56:14.580Z,72.71
2016-07-30T02:57:14.608Z,72.8
2016-07-30T02:58:14.632Z,72.8
2016-07-30T02:59:14.658Z,72.42
2016-07-30T03:00:14.685Z,72.42
2016-07-30T03:01:14.717Z,72.8
2016-07-30T03:02:14.738Z,73
2016-07-30T03:03:14.763Z,72.52
2016-07-30T03:04:14.789Z,72.42
2016-07-30T03:05:14.813Z,72.8
2016-07-30T03:06:14.839Z,72.71
2016-07-30T03:07:14.866Z,72.8
2016-07-30T03:08:14.890Z,72.42
2016-07-30T03:09:14.919Z,72.52
2016-07-30T03:10:14.944Z,72.42
2016-07-30T03:11:14.968Z,72.9
2016-07-30T03:12:14.994Z,72.71
2016-07-30T03:13:15.020Z,73
2016-07-30T03:14:15.046Z,72.61
2016-07-30T03:15:15.072Z,72.8
2016-07-30T03:16:15.097Z,72.52
2016-07-30T03:17:15.124Z,72.52
2016-07-30T03:18:15.149Z,72.61
2016-07-30T03:19:15.175Z,72.9
2016-07-30T03:20:15.203Z,72.71
2016-07-30T03:21:15.226Z,72.9
2016-07-30T03:22:15.254Z,72.71
2016-07-30T03:23:15.280Z,72.42
2016-07-30T03:24:15.307Z,72.8
2016-07-30T03:25:15.332Z,73
2016-07-30T03:26:15.357Z,73.19
2016-07-30T03:27:15.385Z,72.71
2016-07-30T03:28:15.409Z,72.9
2016-07-30T03:29:15.435Z,72.9
2016-07-30T03:30:15.460Z,72.61
2016-07-30T03:31:15.486Z,72.9
2016-07-30T03:32:15.514Z,72.9
2016-07-30T03:33:15.548Z,72.8
2016-07-30T03:34:15.565Z,72.8
2016-07-30T03:35:15.589Z,72.61
2016-07-30T03:36:15.620Z,72.71
2016-07-30T03:37:15.643Z,72.9
2016-07-30T03:38:15.670Z,72.8
2016-07-30T03:39:15.694Z,73
2016-07-30T03:40:15.719Z,72.71
2016-07-30T03:41:15.747Z,73.09
2016-07-30T03:42:15.772Z,72.8
2016-07-30T03:43:15.796Z,72.9
2016-07-30T03:44:15.823Z,72.9
2016-07-30T03:45:15.849Z,72.8
2016-07-30T03:46:15.875Z,73
2016-07-30T03:47:15.901Z,73.58
2016-07-30T03:48:15.925Z,73.58
2016-07-30T03:49:15.957Z,73.48
2016-07-30T03:50:15.976Z,73
2016-07-30T03:51:16.004Z,73.28
2016-07-30T03:52:16.031Z,72.8
2016-07-30T03:53:16.056Z,72.8
2016-07-30T03:54:16.079Z,73.67
2016-07-30T03:55:16.106Z,72.9
2016-07-30T03:56:16.133Z,73
2016-07-30T03:57:16.158Z,72.71
2016-07-30T03:58:16.183Z,72.9
2016-07-30T03:59:16.210Z,73
2016-07-30T04:00:16.240Z,72.8
2016-07-30T04:01:16.260Z,72.8
2016-07-30T04:02:16.288Z,72.61
2016-07-30T04:03:16.313Z,73
2016-07-30T04:04:16.339Z,72.8
2016-07-30T04:05:16.365Z,72.8
2016-07-30T04:06:16.390Z,72.52
2016-07-30T04:07:16.417Z,72.8
2016-07-30T04:08:16.442Z,72.8
2016-07-30T04:09:16.469Z,72.61
2016-07-30T04:10:16.499Z,72.8
2016-07-30T04:11:16.519Z,72.71
2016-07-30T04:12:16.554Z,72.52
2016-07-30T04:13:16.571Z,72.52
2016-07-30T04:14:16.596Z,72.52
2016-07-30T04:15:16.627Z,72.8
2016-07-30T04:16:16.648Z,72.52
2016-07-30T04:17:16.673Z,72.71
2016-07-30T04:18:16.701Z,72.71
2016-07-30T04:19:16.725Z,72.8
2016-07-30T04:20:16.750Z,72.8
2016-07-30T04:21:16.777Z,72.8
2016-07-30T04:22:16.802Z,72.61
2016-07-30T04:23:16.829Z,71.94
2016-07-30T04:24:16.855Z,72.32
2016-07-30T04:25:16.880Z,72.03
2016-07-30T04:26:16.906Z,72.32
2016-07-30T04:27:16.933Z,72.52
2016-07-30T04:28:16.958Z,72.13
2016-07-30T04:29:16.984Z,72.13
2016-07-30T04:30:17.010Z,72.16
2016-07-30T04:31:17.036Z,72.26
2016-07-30T04:32:17.061Z,72.26
2016-07-30T04:33:17.089Z,71.97
2016-07-30T04:34:17.116Z,72.13
2016-07-30T04:35:17.140Z,72.13
2016-07-30T04:36:17.165Z,72.16
2016-07-30T04:37:17.192Z,72.42
2016-07-30T04:38:17.217Z,72.06
2016-07-30T04:39:17.252Z,71.88
2016-07-30T04:40:17.270Z,71.97
2016-07-30T04:41:17.301Z,72.13
2016-07-30T04:42:17.320Z,72.45
2016-07-30T04:43:17.351Z,72.13
2016-07-30T04:44:17.373Z,72.16
2016-07-30T04:45:17.403Z,72.36
2016-07-30T04:46:17.423Z,71.88
2016-07-30T04:47:17.449Z,71.48
2016-07-30T04:48:17.476Z,71.78
2016-07-30T04:49:17.501Z,71.78
2016-07-30T04:50:17.527Z,71.39
2016-07-30T04:51:17.556Z,71.78
2016-07-30T04:52:17.580Z,71.88
2016-07-30T04:53:17.608Z,71.97
2016-07-30T04:54:17.633Z,71.68
2016-07-30T04:55:17.664Z,71.1
2016-07-30T04:56:17.683Z,71.3
2016-07-30T04:57:17.711Z,71.68
2016-07-30T04:58:17.735Z,71.48
2016-07-30T04:59:17.763Z,71.97
2016-07-30T05:00:17.789Z,71.58
2016-07-30T05:01:17.815Z,71.39
2016-07-30T05:02:17.845Z,71.78
2016-07-30T05:03:17.868Z,71.68
2016-07-30T05:04:17.891Z,71.78
2016-07-30T05:05:17.919Z,71.58
2016-07-30T05:06:17.942Z,71.58
2016-07-30T05:07:17.969Z,71.58
2016-07-30T05:09:18.025Z,71.78
2016-07-30T05:10:18.047Z,71.78
2016-07-30T05:11:18.073Z,71.78
2016-07-30T05:12:18.100Z,71.48
2016-07-30T05:13:18.124Z,71.48
2016-07-30T05:14:18.149Z,70.9
2016-07-30T05:15:18.177Z,71.58
2016-07-30T05:16:18.202Z,71.68
2016-07-30T05:17:18.228Z,71.39
2016-07-30T05:18:18.255Z,71.3
2016-07-30T05:19:18.281Z,71.39
2016-07-30T05:20:18.314Z,71.39
2016-07-30T05:21:18.333Z,70.9
2016-07-30T05:22:18.361Z,71.3
2016-07-30T05:24:18.409Z,71.1
2016-07-30T05:25:18.435Z,71.2
2016-07-30T05:26:18.462Z,71.1
2016-07-30T05:27:18.487Z,70.72
2016-07-30T05:28:18.514Z,70.52
2016-07-30T05:29:18.541Z,70.72
2016-07-30T05:30:18.571Z,70.9
2016-07-30T05:31:18.593Z,70.72
2016-07-30T05:32:18.620Z,70.42
2016-07-30T05:33:18.643Z,70.52
2016-07-30T05:34:18.670Z,70.72
2016-07-30T05:35:18.698Z,70.52
2016-07-30T05:36:18.726Z,70.32
2016-07-30T05:37:18.747Z,70.32
2016-07-30T05:39:18.802Z,70.17
2016-07-30T05:40:18.828Z,70.36
2016-07-30T05:41:18.852Z,69.68
2016-07-30T05:42:18.881Z,70.07
2016-07-30T05:43:18.908Z,69.78
2016-07-30T05:44:18.932Z,69.88
2016-07-30T05:45:18.958Z,69.98
2016-07-30T05:46:18.984Z,69.4
2016-07-30T05:47:19.011Z,69.78
2016-07-30T05:48:19.036Z,69.78
2016-07-30T05:49:19.063Z,69.59
2016-07-30T05:50:19.088Z,69.49
2016-07-30T05:51:19.117Z,69.59
2016-07-30T05:52:19.146Z,69.4
2016-07-30T05:54:19.194Z,69.2
2016-07-30T05:55:19.230Z,69.4
2016-07-30T05:56:19.247Z,69.59
2016-07-30T05:57:19.277Z,69.2
2016-07-30T05:58:19.298Z,69.3
2016-07-30T05:59:19.323Z,69.2
2016-07-30T06:00:19.350Z,69.2
2016-07-30T06:01:19.379Z,69.01
2016-07-30T06:02:19.401Z,69.59
2016-07-30T06:03:20.133Z,69.2
2016-07-30T06:04:19.456Z,69.2
2016-07-30T06:05:19.483Z,68.91
2016-07-30T06:06:19.507Z,69.1
2016-07-30T06:07:19.536Z,68.52
2016-07-30T06:08:19.562Z,68.72
2016-07-30T06:09:19.588Z,68.91
2016-07-30T06:10:19.613Z,68.72
2016-07-30T06:11:19.643Z,69.24
2016-07-30T06:12:19.666Z,68.56
2016-07-30T06:13:19.697Z,68.37
2016-07-30T06:14:19.722Z,68.52
2016-07-30T06:15:19.745Z,68.91
2016-07-30T06:16:19.769Z,68.91
2016-07-30T06:17:19.798Z,68.66
2016-07-30T06:18:19.829Z,68.56
2016-07-30T06:19:19.857Z,68.56
2016-07-30T06:20:19.875Z,68.46
2016-07-30T06:21:19.904Z,68.66
2016-07-30T06:22:19.927Z,68.56
2016-07-30T06:24:19.981Z,68.27
2016-07-30T06:25:20.011Z,68.17
2016-07-30T06:26:20.035Z,68.85
2016-07-30T06:27:20.069Z,68.66
2016-07-30T06:28:20.087Z,68.75
2016-07-30T06:29:20.116Z,68.08
2016-07-30T06:30:20.140Z,68.17
2016-07-30T06:31:20.167Z,68.27
2016-07-30T06:32:20.198Z,68.08
2016-07-30T06:33:20.219Z,68.27
2016-07-30T06:34:20.246Z,68.27
2016-07-30T06:35:20.274Z,68.37
2016-07-30T06:36:20.300Z,68.08
2016-07-30T06:37:20.327Z,68.17
2016-07-30T06:38:20.350Z,68.17
2016-07-30T06:39:20.383Z,68.46
2016-07-30T06:40:20.406Z,68.27
2016-07-30T06:41:20.433Z,68.08
2016-07-30T06:42:20.459Z,67.88
2016-07-30T06:43:21.183Z,68.17
2016-07-30T06:44:20.512Z,67.88
2016-07-30T06:45:20.539Z,68.17
2016-07-30T06:46:20.567Z,67.49
2016-07-30T06:47:20.593Z,68.08
2016-07-30T06:48:20.620Z,67.3
2016-07-30T06:49:20.651Z,67.69
2016-07-30T06:50:20.671Z,67.49
2016-07-30T06:51:20.699Z,67.72
2016-07-30T06:52:20.726Z,67.82
2016-07-30T06:53:20.751Z,67.63
2016-07-30T06:54:20.778Z,67.59
2016-07-30T06:55:20.807Z,67.33
2016-07-30T06:56:20.830Z,67.3
2016-07-30T06:57:20.859Z,67.24
2016-07-30T06:58:20.885Z,67.43
2016-07-30T06:59:20.912Z,67.33
2016-07-30T07:00:20.936Z,66.95
2016-07-30T07:01:20.968Z,66.95
2016-07-30T07:02:20.991Z,67.05
2016-07-30T07:03:21.027Z,67.33
2016-07-30T07:04:21.044Z,67.14
2016-07-30T07:05:21.092Z,66.66
2016-07-30T07:06:21.099Z,66.95
2016-07-30T07:07:21.127Z,66.75
2016-07-30T07:08:21.152Z,66.47
2016-07-30T07:09:21.178Z,66.37
2016-07-30T07:10:21.207Z,66.66
2016-07-30T07:11:21.235Z,66.85
2016-07-30T07:12:21.257Z,66.56
2016-07-30T07:13:21.286Z,66.37
2016-07-30T07:14:21.316Z,66.56
2016-07-30T07:15:21.337Z,66.56
2016-07-30T07:16:21.367Z,66.37
2016-07-30T07:17:21.392Z,66.75
2016-07-30T07:18:21.422Z,66.95
2016-07-30T07:19:21.447Z,66.95
2016-07-30T07:20:21.473Z,66.56
2016-07-30T07:21:21.508Z,66.37
2016-07-30T07:22:21.526Z,66.95
2016-07-30T07:23:21.561Z,66.66
2016-07-30T07:24:21.581Z,66.27
2016-07-30T07:25:21.613Z,66.08
2016-07-30T07:26:21.634Z,65.98
2016-07-30T07:27:21.666Z,66.17
2016-07-30T07:28:21.687Z,65.98
2016-07-30T07:29:21.718Z,65.88
2016-07-30T07:30:21.742Z,65.88
2016-07-30T07:31:21.770Z,66.11
2016-07-30T07:32:21.796Z,65.79
2016-07-30T07:33:21.823Z,65.88
2016-07-30T07:34:21.848Z,66.11
2016-07-30T07:35:21.879Z,66.17
2016-07-30T07:36:21.902Z,66.17
2016-07-30T07:37:21.931Z,66.17
2016-07-30T07:38:21.957Z,65.5
2016-07-30T07:39:21.987Z,66.11
2016-07-30T07:40:22.011Z,65.98
2016-07-30T07:41:22.040Z,65.98
2016-07-30T07:42:22.066Z,66.17
2016-07-30T07:43:22.094Z,66.17
2016-07-30T07:44:22.119Z,65.72
2016-07-30T07:45:22.146Z,65.69
2016-07-30T07:46:22.178Z,65.53
2016-07-30T07:47:22.210Z,65.72
2016-07-30T07:48:22.229Z,65.63
2016-07-30T07:49:22.257Z,65.92
2016-07-30T07:50:22.282Z,65.72
2016-07-30T07:51:22.315Z,65.63
2016-07-30T07:52:22.333Z,65.43
2016-07-30T07:53:22.364Z,65.63
2016-07-30T07:54:22.389Z,65.53
2016-07-30T07:55:22.425Z,65.34
2016-07-30T07:56:22.444Z,65.43
2016-07-30T07:57:22.484Z,65.43
2016-07-30T07:58:22.500Z,64.66
2016-07-30T07:59:22.531Z,65.14
2016-07-30T08:00:22.553Z,65.43
2016-07-30T08:01:22.583Z,65.05
2016-07-30T08:02:22.611Z,65.14
2016-07-30T08:03:22.647Z,65.24
2016-07-30T08:04:22.663Z,65.34
2016-07-30T08:05:22.688Z,65.14
2016-07-30T08:06:22.716Z,64.95
2016-07-30T08:07:22.743Z,64.95
2016-07-30T08:08:22.770Z,64.95
2016-07-30T08:09:22.799Z,64.75
2016-07-30T08:10:22.824Z,64.37
2016-07-30T08:11:22.855Z,64.69
2016-07-30T08:12:22.881Z,64.5
2016-07-30T08:13:22.917Z,64.69
2016-07-30T08:14:22.936Z,64.69
2016-07-30T08:15:22.967Z,64.47
2016-07-30T08:16:22.992Z,64.4
2016-07-30T08:17:23.732Z,64.69
2016-07-30T08:18:23.044Z,63.82
2016-07-30T08:19:23.075Z,64.01
2016-07-30T08:20:23.101Z,63.62
2016-07-30T08:21:23.833Z,63.62
2016-07-30T08:22:23.155Z,63.82
2016-07-30T08:23:23.186Z,63.72
2016-07-30T08:24:23.211Z,63.72
2016-07-30T08:25:23.936Z,63.72
2016-07-30T08:26:23.269Z,63.62
2016-07-30T08:27:23.301Z,64.01
2016-07-30T08:28:23.324Z,63.82
2016-07-30T08:29:23.349Z,64.01
2016-07-30T08:30:23.379Z,63.34
2016-07-30T08:31:23.408Z,63.24
2016-07-30T08:32:23.439Z,62.66
2016-07-30T08:33:23.465Z,63.14
2016-07-30T08:34:23.490Z,62.88
2016-07-30T08:35:23.526Z,63.24
2016-07-30T08:36:23.546Z,63.04
2016-07-30T08:37:23.576Z,62.69
2016-07-30T08:38:23.601Z,62.69
2016-07-30T08:39:23.631Z,62.69
2016-07-30T08:40:23.661Z,62.59
2016-07-30T08:41:23.686Z,63.07
2016-07-30T08:42:23.712Z,62.2
2016-07-30T08:43:23.741Z,62.2
2016-07-30T08:44:23.771Z,61.72
2016-07-30T08:45:23.813Z,62.1
2016-07-30T08:46:23.826Z,62.01
2016-07-30T08:47:23.854Z,61.72
2016-07-30T08:48:23.883Z,61.62
2016-07-30T08:49:23.910Z,61.55
2016-07-30T08:50:23.936Z,61.65
2016-07-30T08:51:23.971Z,61.55
2016-07-30T08:52:24.000Z,61.46
2016-07-30T08:53:24.024Z,60.97
2016-07-30T08:54:24.050Z,60.97
2016-07-30T08:55:24.079Z,60.97
2016-07-30T08:56:24.108Z,60.78
2016-07-30T08:57:24.135Z,60.97
2016-07-30T08:58:24.162Z,60.3
2016-07-30T08:59:24.200Z,60.1
2016-07-30T09:00:24.220Z,60.68
2016-07-30T09:01:24.247Z,60.32
2016-07-30T09:02:24.276Z,60.23
2016-07-30T09:03:24.308Z,60.42
2016-07-30T09:04:24.333Z,60.32
2016-07-30T09:05:24.361Z,60.52
2016-07-30T09:06:24.389Z,60.42
2016-07-30T09:07:24.432Z,60.52
2016-07-30T09:08:24.445Z,60.23
2016-07-30T09:09:24.475Z,60.03
2016-07-30T09:10:24.504Z,59.74
2016-07-30T09:11:24.540Z,59.84
2016-07-30T09:12:24.559Z,60.32
2016-07-30T09:13:24.596Z,59.84
2016-07-30T09:14:24.617Z,59.84
2016-07-30T09:15:24.647Z,59.84
2016-07-30T09:16:24.674Z,59.94
2016-07-30T09:17:24.707Z,59.84
2016-07-30T09:18:24.732Z,59.55
2016-07-30T09:19:24.760Z,59.06
2016-07-30T09:20:24.786Z,59.28
2016-07-30T09:21:24.817Z,58.9
2016-07-30T09:22:24.846Z,59
2016-07-30T09:23:25.576Z,59.19
2016-07-30T09:24:24.900Z,59.19
2016-07-30T09:25:24.933Z,59
2016-07-30T09:26:24.955Z,58.9
2016-07-30T09:27:24.988Z,59.28
2016-07-30T09:28:25.014Z,59.19
2016-07-30T09:29:25.045Z,59.19
2016-07-30T09:30:25.073Z,58.7
2016-07-30T09:31:25.109Z,58.9
2016-07-30T09:32:25.129Z,58.9
2016-07-30T09:33:25.159Z,58.51
2016-07-30T09:34:25.187Z,58.31
2016-07-30T09:35:25.235Z,58.05
2016-07-30T09:36:25.245Z,57.86
2016-07-30T09:37:25.271Z,57.93
2016-07-30T09:38:25.300Z,58.64
2016-07-30T09:39:25.327Z,58.64
2016-07-30T09:40:25.356Z,58.64
2016-07-30T09:41:25.386Z,58.44
2016-07-30T09:42:25.414Z,57.83
2016-07-30T09:43:25.444Z,57.86
2016-07-30T09:44:25.473Z,57.37
2016-07-30T09:45:25.510Z,57.67
2016-07-30T09:46:25.531Z,57.28
2016-07-30T09:47:25.559Z,57.47
2016-07-30T09:48:25.586Z,57.28
2016-07-30T09:49:25.616Z,57.67
2016-07-30T09:50:25.646Z,57.57
2016-07-30T09:51:25.675Z,57.96
2016-07-30T09:52:25.703Z,57.86
2016-07-30T09:53:25.733Z,57.57
2016-07-30T09:54:25.767Z,57.57
2016-07-30T09:55:25.790Z,56.79
2016-07-30T09:56:25.819Z,56.72
2016-07-30T09:57:25.848Z,56.72
2016-07-30T09:58:25.876Z,56.72
2016-07-30T09:59:25.901Z,56.72
2016-07-30T10:00:25.933Z,56.82
2016-07-30T10:01:25.962Z,56.82
2016-07-30T10:02:25.989Z,56.72
2016-07-30T10:03:26.020Z,56.92
2016-07-30T10:04:26.046Z,56.82
2016-07-30T10:05:26.078Z,56.82
2016-07-30T10:06:26.106Z,56.62
2016-07-30T10:07:26.135Z,56.89
2016-07-30T10:08:26.161Z,57.37
2016-07-30T10:10:26.219Z,57.08
2016-07-30T10:11:26.251Z,57.37
2016-07-30T10:12:26.281Z,57.37
2016-07-30T10:13:26.306Z,56.89
2016-07-30T10:14:26.334Z,56.89
2016-07-30T10:15:26.369Z,56.7
2016-07-30T10:16:26.391Z,56.82
2016-07-30T10:17:26.420Z,56.43
2016-07-30T10:18:26.447Z,56.34
2016-07-30T10:19:26.479Z,56.04
2016-07-30T10:20:26.509Z,56.43
2016-07-30T10:21:26.535Z,56.24
2016-07-30T10:22:26.565Z,56.34
2016-07-30T10:23:26.596Z,56.72
2016-07-30T10:25:26.651Z,56.92
2016-07-30T10:26:26.680Z,56.72
2016-07-30T10:27:26.708Z,56.92
2016-07-30T10:28:26.737Z,56.52
2016-07-30T10:29:26.767Z,56.82
2016-07-30T10:30:26.795Z,56.92
2016-07-30T10:31:26.824Z,56.92
2016-07-30T10:32:26.851Z,56.89
2016-07-30T10:33:26.881Z,56.14
2016-07-30T10:34:26.911Z,55.94
2016-07-30T10:35:26.939Z,56.34
2016-07-30T10:36:26.967Z,56.52
2016-07-30T10:37:27.002Z,56.14
2016-07-30T10:38:27.024Z,55.55
2016-07-30T10:40:27.083Z,55.55
2016-07-30T10:41:27.111Z,55.68
2016-07-30T10:42:27.141Z,55.75
2016-07-30T10:43:27.167Z,55.85
2016-07-30T10:44:27.199Z,55.75
2016-07-30T10:45:27.228Z,55.27
2016-07-30T10:46:27.256Z,55.55
2016-07-30T10:47:27.288Z,55.75
2016-07-30T10:48:27.311Z,55.46
2016-07-30T10:49:27.342Z,55.36
2016-07-30T10:50:27.371Z,56.04
2016-07-30T10:51:27.402Z,55.75
2016-07-30T10:52:27.429Z,55.85
2016-07-30T10:53:27.459Z,56.14
2016-07-30T10:55:27.514Z,56.04
2016-07-30T10:56:27.544Z,56.14
2016-07-30T10:57:27.576Z,56.43
2016-07-30T10:58:27.600Z,56.62
2016-07-30T10:59:27.641Z,56.14
2016-07-30T11:00:27.661Z,56.7
2016-07-30T11:01:27.694Z,56.72
2016-07-30T11:02:27.717Z,56.89
2016-07-30T11:03:27.747Z,56.89
2016-07-30T11:04:27.780Z,57.21
2016-07-30T11:05:27.804Z,56.89
2016-07-30T11:06:27.838Z,57.08
2016-07-30T11:07:27.878Z,56.98
2016-07-30T11:08:27.889Z,56.89
2016-07-30T11:09:28.617Z,56.7
2016-07-30T11:10:27.945Z,56.98
2016-07-30T11:11:27.979Z,56.89
2016-07-30T11:12:28.005Z,56.89
2016-07-30T11:13:28.033Z,56.79
2016-07-30T11:14:28.064Z,56.3
2016-07-30T11:15:28.091Z,56.14
2016-07-30T11:16:28.120Z,56.34
2016-07-30T11:17:28.148Z,56.34
2016-07-30T11:18:28.178Z,55.94
2016-07-30T11:19:28.207Z,56.34
2016-07-30T11:20:28.245Z,56.24
2016-07-30T11:21:28.265Z,56.14
2016-07-30T11:22:28.294Z,55.94
2016-07-30T11:23:28.321Z,56.43
2016-07-30T11:24:28.351Z,56.24
2016-07-30T11:25:28.379Z,56.14
2016-07-30T11:26:28.411Z,56.14
2016-07-30T11:27:28.438Z,56.43
2016-07-30T11:28:28.464Z,56.34
2016-07-30T11:29:28.496Z,56.52
2016-07-30T11:30:28.524Z,56.34
2016-07-30T11:31:28.553Z,56.34
2016-07-30T11:32:28.582Z,56.62
2016-07-30T11:33:28.610Z,56.43
2016-07-30T11:34:28.639Z,56.04
2016-07-30T11:35:28.667Z,55.94
2016-07-30T11:36:28.697Z,56.04
2016-07-30T11:37:28.727Z,56.04
2016-07-30T11:38:28.755Z,56.04
2016-07-30T11:39:28.783Z,56.24
2016-07-30T11:40:28.813Z,56.43
2016-07-30T11:41:28.841Z,56.43
2016-07-30T11:42:28.868Z,56.24
2016-07-30T11:43:28.898Z,55.94
2016-07-30T11:44:28.929Z,55.75
2016-07-30T11:45:28.955Z,55.85
2016-07-30T11:46:28.984Z,55.46
2016-07-30T11:47:29.016Z,55.94
2016-07-30T11:48:29.043Z,55.94
2016-07-30T11:49:29.070Z,55.65
2016-07-30T11:50:29.103Z,56.14
2016-07-30T11:51:29.129Z,56.14
2016-07-30T11:52:29.159Z,56.04
2016-07-30T11:53:29.188Z,56.14
2016-07-30T11:54:29.216Z,56.04
2016-07-30T11:55:29.245Z,55.94
2016-07-30T11:56:29.273Z,56.24
2016-07-30T11:57:29.304Z,55.85
2016-07-30T11:58:29.332Z,56.14
2016-07-30T11:59:29.361Z,55.46
2016-07-30T12:00:29.391Z,55.55
2016-07-30T12:01:29.418Z,55.85
2016-07-30T12:02:29.449Z,55.85
2016-07-30T12:03:29.475Z,55.85
2016-07-30T12:04:29.504Z,55.94
2016-07-30T12:05:29.535Z,55.75
2016-07-30T12:06:29.562Z,56.24
2016-07-30T12:07:29.593Z,55.94
2016-07-30T12:08:29.622Z,56.62
2016-07-30T12:09:29.652Z,56.14
2016-07-30T12:10:29.680Z,56.14
2016-07-30T12:11:29.707Z,56.21
2016-07-30T12:12:29.737Z,55.92
2016-07-30T12:13:29.771Z,56.24
2016-07-30T12:14:29.794Z,56.34
2016-07-30T12:15:29.826Z,56.14
2016-07-30T12:16:29.855Z,55.55
2016-07-30T12:17:29.882Z,55.55
2016-07-30T12:18:29.911Z,55.55
2016-07-30T12:19:29.941Z,55.85
2016-07-30T12:20:29.967Z,56.14
2016-07-30T12:21:29.996Z,55.46
2016-07-30T12:22:30.025Z,55.94
2016-07-30T12:23:30.066Z,55.85
2016-07-30T12:24:30.083Z,55.85
2016-07-30T12:25:30.111Z,55.65
2016-07-30T12:26:30.142Z,55.85
2016-07-30T12:27:30.172Z,56.24
2016-07-30T12:28:30.199Z,56.14
2016-07-30T12:29:30.228Z,56.34
2016-07-30T12:30:30.256Z,56.34
2016-07-30T12:31:30.299Z,55.85
2016-07-30T12:32:30.315Z,56.04
2016-07-30T12:33:30.352Z,55.75
2016-07-30T12:34:30.371Z,55.75
2016-07-30T12:35:30.402Z,55.75
2016-07-30T12:36:30.430Z,55.85
2016-07-30T12:37:30.460Z,55.75
2016-07-30T12:38:30.488Z,55.65
2016-07-30T12:39:30.516Z,56.24
2016-07-30T12:40:30.546Z,56.14
2016-07-30T12:41:30.576Z,56.3
2016-07-30T12:42:30.604Z,56.04
2016-07-30T12:43:30.633Z,56.04
2016-07-30T12:44:30.659Z,56.24
2016-07-30T12:45:30.692Z,56.04
2016-07-30T12:46:30.723Z,55.65
2016-07-30T12:47:30.746Z,55.75
2016-07-30T12:48:30.777Z,55.75
2016-07-30T12:49:30.805Z,55.94
2016-07-30T12:50:30.835Z,55.75
2016-07-30T12:51:30.864Z,55.94
2016-07-30T12:52:30.893Z,55.85
2016-07-30T12:53:30.922Z,55.85
2016-07-30T12:54:30.951Z,55.85
2016-07-30T12:55:30.978Z,56.04
2016-07-30T12:56:31.013Z,55.85
2016-07-30T12:57:31.040Z,55.55
2016-07-30T12:58:31.067Z,55.55
2016-07-30T12:59:31.096Z,55.65
2016-07-30T13:00:31.823Z,55.55
2016-07-30T13:01:31.155Z,55.65
2016-07-30T13:02:31.183Z,55.55
2016-07-30T13:03:31.215Z,55.55
2016-07-30T13:04:31.241Z,55.27
2016-07-30T13:05:31.269Z,55.27
2016-07-30T13:06:31.300Z,55.85